createdAt,value
2023-02-09T00:02:10.700Z,71.89
2023-02-09T00:09:28.614Z,71.01
2023-02-09T00:12:56.421Z,70.25
2023-02-09T00:16:17.798Z,70.98
2023-02-09T00:19:50.612Z,70.37
2023-02-09T00:23:07.472Z,69.69
2023-02-09T00:26:41.587Z,70.94
2023-02-09T00:29:58.930Z,71.68
2023-02-09T00:33:09.087Z,69.60
2023-02-09T00:36:23.629Z,69.59
2023-02-09T00:39:43.076Z,69.76
2023-02-09T00:43:11.086Z,70.26
2023-02-09T00:46:55.062Z,69.99
2023-02-09T00:50:10.149Z,68.49
2023-02-09T00:53:25.313Z,68.41
2023-02-09T00:56:54.554Z,69.25
2023-02-09T01:00:24.731Z,69.00
2023-02-09T01:03:45.986Z,70.64
2023-02-09T01:06:56.978Z,70.55
2023-02-09T01:10:32.443Z,71.04
2023-02-09T01:14:14.621Z,69.92
2023-02-09T01:17:34.877Z,71.03
2023-02-09T01:21:07.376Z,70.96
2023-02-09T01:24:52.440Z,70.96
2023-02-09T01:28:32.282Z,71.58
2023-02-09T01:31:58.505Z,70.62
2023-02-09T01:35:13.915Z,70.75
2023-02-09T01:38:43.556Z,70.88
2023-02-09T01:42:01.191Z,71.29
2023-02-09T01:45:40.871Z,73.06
2023-02-09T01:49:02.429Z,71.48
2023-02-09T01:52:53.150Z,70.84
2023-02-09T02:03:48.904Z,72.67
2023-02-09T02:11:12.853Z,71.83
2023-02-09T02:14:49.717Z,71.17
2023-02-09T02:18:32.710Z,71.69
2023-02-09T02:22:39.658Z,72.37
2023-02-09T02:26:42.001Z,70.42
2023-02-09T02:30:55.164Z,72.09
2023-02-09T02:34:31.924Z,72.36
2023-02-09T02:38:13.727Z,72.89
2023-02-09T02:45:08.271Z,72.33
2023-02-09T02:52:26.781Z,73.27
2023-02-09T02:56:06.923Z,72.21
2023-02-09T02:59:30.632Z,70.92
2023-02-09T03:03:15.076Z,70.58
2023-02-09T03:10:03.331Z,72.21
2023-02-09T03:13:43.264Z,70.50
2023-02-09T03:17:06.194Z,72.73
2023-02-09T03:20:22.103Z,71.85
2023-02-09T03:23:42.400Z,71.79
2023-02-09T03:27:29.968Z,72.41
2023-02-09T03:30:58.035Z,70.87
2023-02-09T03:34:23.464Z,71.70
2023-02-09T03:37:33.887Z,72.15
2023-02-09T03:41:00.963Z,74.08
2023-02-09T03:44:32.223Z,75.69
2023-02-09T03:48:11.578Z,72.36
2023-02-09T03:51:29.684Z,72.26
2023-02-09T03:54:51.642Z,71.52
2023-02-09T03:58:23.716Z,72.80
2023-02-09T04:01:56.787Z,71.11
2023-02-09T04:05:23.850Z,72.39
2023-02-09T04:09:15.828Z,72.32
2023-02-09T04:12:34.438Z,74.39
2023-02-09T04:15:59.671Z,75.16
2023-02-09T04:22:59.482Z,74.17
2023-02-09T04:29:34.075Z,74.00
2023-02-09T04:32:41.819Z,73.88
2023-02-09T04:35:51.896Z,73.38
2023-02-09T04:39:00.016Z,73.44
2023-02-09T04:42:08.312Z,74.76
2023-02-09T04:45:15.308Z,73.39
2023-02-09T04:48:29.398Z,73.84
2023-02-09T04:51:41.700Z,74.87
2023-02-09T04:54:50.581Z,74.48
2023-02-09T04:58:16.244Z,74.90
2023-02-09T05:01:28.050Z,75.04
2023-02-09T05:04:35.560Z,76.50
2023-02-09T05:07:49.979Z,75.16
2023-02-09T05:11:01.468Z,74.68
2023-02-09T05:14:08.317Z,75.50
2023-02-09T05:17:16.044Z,75.90
2023-02-09T05:20:32.654Z,76.88
2023-02-09T05:23:41.213Z,76.89
2023-02-09T05:26:49.511Z,76.59
2023-02-09T05:29:58.670Z,75.85
2023-02-09T05:33:34.206Z,75.38
2023-02-09T05:36:54.780Z,74.24
2023-02-09T05:40:42.148Z,75.75
2023-02-09T05:44:01.814Z,76.55
2023-02-09T05:47:44.976Z,76.15
2023-02-09T05:51:12.402Z,74.99
2023-02-09T05:54:56.637Z,73.91
2023-02-09T05:58:09.499Z,74.80
2023-02-09T06:01:53.264Z,74.63
2023-02-09T06:05:11.933Z,73.93
2023-02-09T06:09:04.094Z,73.05
2023-02-09T06:12:46.846Z,74.15
2023-02-09T06:16:36.572Z,72.64
2023-02-09T06:20:30.273Z,73.11
2023-02-09T06:23:45.844Z,72.48
2023-02-09T06:39:28.537Z,75.00
2023-02-09T06:43:45.319Z,74.34
2023-02-09T06:57:04.928Z,75.36
2023-02-09T07:40:35.949Z,75.53
2023-02-09T07:44:19.209Z,75.28
2023-02-09T08:18:31.969Z,75.42
2023-02-09T08:21:49.642Z,75.25
2023-02-09T08:25:14.981Z,74.04
2023-02-09T08:28:42.718Z,72.80
2023-02-09T08:32:04.837Z,73.47
2023-02-09T08:35:32.873Z,73.00
2023-02-09T08:46:41.166Z,71.93
2023-02-09T08:50:10.994Z,71.14
2023-02-09T08:53:30.325Z,71.15
2023-02-09T08:56:59.737Z,69.94
2023-02-09T09:00:39.361Z,70.01
2023-02-09T09:04:21.910Z,69.72
2023-02-09T09:07:40.586Z,69.14
2023-02-09T09:14:27.510Z,69.39
2023-02-09T09:17:36.357Z,68.97
2023-02-09T09:21:08.203Z,68.06
2023-02-09T09:24:24.074Z,68.52
2023-02-09T09:28:00.045Z,67.47
2023-02-09T09:31:21.792Z,67.82
2023-02-09T09:34:36.454Z,67.25
2023-02-09T09:38:24.139Z,66.44
2023-02-09T09:41:51.995Z,65.18
2023-02-09T09:45:16.008Z,66.09
2023-02-09T09:48:46.062Z,63.88
2023-02-09T09:59:51.994Z,41.97
2023-02-09T10:06:48.623Z,36.47
2023-02-09T10:10:24.719Z,34.56
2023-02-09T10:14:48.622Z,34.38
2023-02-09T10:18:14.658Z,32.56
2023-02-09T10:25:04.450Z,31.15
2023-02-09T10:41:07.844Z,28.80
2023-02-09T16:31:47.492Z,57.92
2023-02-09T16:35:17.582Z,58.83
2023-02-09T16:38:34.146Z,59.63
2023-02-09T16:41:55.364Z,59.65
2023-02-09T16:45:22.784Z,60.72
2023-02-09T16:48:52.439Z,60.33
2023-02-09T16:52:02.530Z,60.68
2023-02-09T16:55:24.432Z,62.13
2023-02-09T16:58:37.301Z,61.87
2023-02-09T17:01:50.220Z,62.14
2023-02-09T17:05:00.546Z,61.79
2023-02-09T17:08:27.742Z,62.82
2023-02-09T17:11:45.196Z,63.06
2023-02-09T17:14:53.029Z,62.79
2023-02-09T17:18:02.175Z,63.30
2023-02-09T17:21:08.736Z,64.62
2023-02-09T17:24:17.013Z,63.83
2023-02-09T17:27:19.838Z,64.05
2023-02-09T17:30:22.556Z,64.17
2023-02-09T17:33:27.460Z,64.02
2023-02-09T17:36:32.011Z,64.70
2023-02-09T17:39:34.917Z,65.27
2023-02-09T17:42:38.656Z,65.21
2023-02-09T17:45:47.666Z,64.94
2023-02-09T17:48:50.570Z,64.68
2023-02-09T17:51:54.646Z,65.15
2023-02-09T17:54:57.426Z,64.11
2023-02-09T17:58:01.265Z,64.99
2023-02-09T18:01:20.185Z,64.25
2023-02-09T18:04:26.678Z,64.69
2023-02-09T18:07:31.122Z,66.00
2023-02-09T18:10:33.995Z,66.08
2023-02-09T18:13:36.645Z,66.29
2023-02-09T18:16:39.297Z,66.85
2023-02-09T18:19:42.048Z,65.63
2023-02-09T18:22:46.139Z,67.00
2023-02-09T18:25:50.907Z,66.88
2023-02-09T18:28:53.571Z,67.54
2023-02-09T18:31:56.635Z,67.84
2023-02-09T18:34:59.264Z,66.11
2023-02-09T18:38:06.102Z,67.55
2023-02-09T18:41:11.249Z,67.81
2023-02-09T18:44:14.132Z,67.88
2023-02-09T18:47:17.212Z,67.07
2023-02-09T18:50:21.631Z,67.66
2023-02-09T18:53:25.714Z,67.78
2023-02-09T18:56:28.472Z,67.80
2023-02-09T18:59:32.381Z,67.13
2023-02-09T19:02:35.253Z,67.84
2023-02-09T19:05:38.078Z,68.56
2023-02-09T19:08:42.276Z,67.64
2023-02-09T19:11:45.336Z,67.68
2023-02-09T19:14:48.408Z,68.20
2023-02-09T19:17:51.440Z,68.05
2023-02-09T19:20:55.588Z,68.21
2023-02-09T19:23:59.692Z,69.47
2023-02-09T19:27:03.570Z,69.62
2023-02-09T19:30:06.875Z,67.47
2023-02-09T19:33:09.520Z,68.08
2023-02-09T19:36:12.299Z,66.83
2023-02-09T19:39:17.334Z,67.10
2023-02-09T19:42:20.948Z,68.21
2023-02-09T19:45:24.086Z,69.23
2023-02-09T19:48:26.837Z,67.29
2023-02-09T19:51:29.538Z,67.89
2023-02-09T19:54:35.030Z,68.52
2023-02-09T19:57:37.715Z,68.68
2023-02-09T20:00:40.359Z,68.62
2023-02-09T20:03:43.649Z,68.86
2023-02-09T20:06:46.355Z,68.16
2023-02-09T20:09:52.299Z,68.55
2023-02-09T20:12:57.090Z,68.37
2023-02-09T20:15:59.775Z,69.77
2023-02-09T20:19:02.456Z,69.33
2023-02-09T20:22:05.189Z,69.18
2023-02-09T20:25:10.598Z,69.21
2023-02-09T20:28:13.622Z,70.04
2023-02-09T20:31:19.635Z,70.08
2023-02-09T20:34:22.652Z,68.80
2023-02-09T20:37:25.773Z,68.62
2023-02-09T20:40:30.803Z,67.58
2023-02-09T20:43:50.983Z,69.34
2023-02-09T20:46:59.629Z,69.38
2023-02-09T20:50:02.389Z,70.92
2023-02-09T20:53:05.116Z,70.74
2023-02-09T20:56:09.602Z,69.87
2023-02-09T20:59:13.498Z,69.16
2023-02-09T21:02:16.259Z,70.11
2023-02-09T21:05:19.014Z,69.05
2023-02-09T21:08:22.818Z,69.24
2023-02-09T21:11:27.014Z,68.98
2023-02-09T21:14:41.848Z,68.77
2023-02-09T21:17:48.436Z,68.71
2023-02-09T21:20:51.492Z,70.14
2023-02-09T21:23:54.790Z,70.01
2023-02-09T21:27:00.610Z,69.72
2023-02-09T21:30:03.897Z,70.30
2023-02-09T21:33:06.556Z,70.04
2023-02-09T21:36:10.132Z,70.84
2023-02-09T21:39:13.122Z,69.27
2023-02-09T21:42:31.183Z,69.11
2023-02-09T21:45:33.978Z,70.64
2023-02-09T21:48:36.722Z,71.55
2023-02-09T21:51:39.641Z,71.49
2023-02-09T21:54:42.293Z,69.90
2023-02-09T21:57:46.275Z,70.65
2023-02-09T22:00:57.512Z,71.59
2023-02-09T22:04:00.611Z,69.44
2023-02-09T22:07:03.281Z,70.28
2023-02-09T22:10:06.744Z,71.24
2023-02-09T22:13:10.736Z,70.08
2023-02-09T22:16:19.693Z,69.42
2023-02-09T22:19:22.568Z,68.79
2023-02-09T22:22:25.287Z,69.26
2023-02-09T22:25:28.973Z,70.60
2023-02-09T22:28:36.005Z,71.90
2023-02-09T22:31:39.024Z,70.79
2023-02-09T22:34:41.754Z,71.76
2023-02-09T22:37:44.453Z,70.47
2023-02-09T22:40:47.123Z,71.35
2023-02-09T22:43:53.104Z,72.50
2023-02-09T22:46:56.131Z,73.11
2023-02-09T22:49:58.848Z,71.70
2023-02-09T22:53:01.548Z,71.97
2023-02-09T22:56:04.796Z,72.00
2023-02-09T22:59:09.372Z,71.37
2023-02-09T23:02:12.706Z,71.29
2023-02-09T23:05:15.436Z,70.08
2023-02-09T23:08:18.423Z,70.53
2023-02-09T23:11:21.366Z,71.09
2023-02-09T23:14:25.452Z,71.20
2023-02-09T23:20:32.156Z,73.26
2023-02-09T23:23:35.417Z,73.06
2023-02-09T23:26:39.658Z,71.31
2023-02-09T23:29:43.884Z,72.34
2023-02-09T23:32:47.410Z,72.18
2023-02-09T23:35:50.139Z,73.33
2023-02-09T23:38:54.182Z,71.66
2023-02-09T23:41:56.937Z,72.04
2023-02-09T23:45:00.991Z,71.89
2023-02-09T23:48:03.684Z,72.23
2023-02-09T23:51:08.788Z,72.65
2023-02-09T23:54:11.579Z,70.64
2023-02-09T23:57:14.254Z,70.50
